createdAt,value
2019-03-29T00:00:14.233Z,-0.07
2019-03-29T00:02:47.373Z,-0.04
2019-03-29T00:05:19.553Z,0.00
2019-03-29T00:07:50.997Z,-0.05
2019-03-29T00:10:22.234Z,-0.02
2019-03-29T00:12:53.602Z,-0.17
2019-03-29T00:15:24.989Z,-0.11
2019-03-29T00:17:56.550Z,-0.07
2019-03-29T00:20:27.883Z,-0.14
2019-03-29T00:22:59.169Z,-0.12
2019-03-29T00:25:30.533Z,-0.16
2019-03-29T00:28:01.878Z,-0.15
2019-03-29T00:30:35.285Z,-0.08
2019-03-29T00:33:06.613Z,-0.11
2019-03-29T00:35:37.805Z,0.01
2019-03-29T00:38:09.122Z,0.03
2019-03-29T00:40:41.503Z,0.05
2019-03-29T00:43:12.852Z,0.08
2019-03-29T00:45:44.138Z,0.06
2019-03-29T00:48:15.341Z,0.02
2019-03-29T00:50:46.644Z,0.01
2019-03-29T00:53:19.038Z,0.01
2019-03-29T00:55:50.268Z,0.05
2019-03-29T00:58:22.848Z,0.07
2019-03-29T01:00:54.291Z,0.10
2019-03-29T01:03:25.475Z,0.13
2019-03-29T01:05:56.786Z,0.14
2019-03-29T01:08:28.000Z,0.22
2019-03-29T01:11:00.135Z,0.20
2019-03-29T01:13:31.457Z,0.42
2019-03-29T01:16:02.818Z,0.58
2019-03-29T01:18:35.149Z,0.56
2019-03-29T01:21:06.386Z,0.53
2019-03-29T01:23:37.635Z,0.47
2019-03-29T01:26:09.937Z,0.44
2019-03-29T01:28:41.419Z,0.50
2019-03-29T01:31:12.653Z,0.42
2019-03-29T01:33:44.009Z,0.38
2019-03-29T01:36:15.306Z,0.32
2019-03-29T01:38:46.413Z,0.32
2019-03-29T01:41:17.698Z,0.30
2019-03-29T01:43:49.039Z,0.29
2019-03-29T01:46:20.337Z,0.27
2019-03-29T01:48:51.660Z,0.29
2019-03-29T01:51:22.864Z,0.30
2019-03-29T01:53:54.172Z,0.37
2019-03-29T01:56:25.322Z,0.40
2019-03-29T01:58:56.414Z,0.48
2019-03-29T02:01:28.421Z,0.54
2019-03-29T02:04:00.589Z,0.53
2019-03-29T02:06:31.668Z,0.55
2019-03-29T02:09:02.979Z,0.63
2019-03-29T02:11:35.350Z,0.64
2019-03-29T02:14:06.669Z,0.72
2019-03-29T02:16:38.032Z,0.78
2019-03-29T02:19:09.250Z,0.80
2019-03-29T02:21:40.955Z,0.80
2019-03-29T02:24:13.271Z,0.75
2019-03-29T02:26:44.548Z,0.80
2019-03-29T02:29:15.842Z,0.82
2019-03-29T02:31:47.788Z,0.76
2019-03-29T02:34:19.014Z,0.73
2019-03-29T02:36:50.254Z,0.78
2019-03-29T02:39:21.551Z,0.80
2019-03-29T02:41:53.785Z,0.81
2019-03-29T02:44:24.840Z,0.92
2019-03-29T02:46:56.133Z,0.95
2019-03-29T02:49:27.358Z,0.91
2019-03-29T02:51:58.717Z,0.92
2019-03-29T02:54:29.944Z,0.99
2019-03-29T02:57:01.250Z,1.02
2019-03-29T02:59:33.590Z,1.01
2019-03-29T03:02:06.911Z,1.01
2019-03-29T03:04:38.211Z,1.02
2019-03-29T03:07:10.324Z,1.02
2019-03-29T03:09:41.563Z,1.04
2019-03-29T03:12:12.847Z,1.06
2019-03-29T03:14:44.312Z,1.05
2019-03-29T03:17:15.547Z,1.11
2019-03-29T03:19:46.888Z,1.06
2019-03-29T03:22:18.200Z,1.02
2019-03-29T03:24:50.427Z,0.91
2019-03-29T03:27:21.923Z,0.94
2019-03-29T03:29:53.223Z,0.89
2019-03-29T03:32:24.474Z,0.93
2019-03-29T03:34:55.828Z,0.97
2019-03-29T03:37:27.154Z,1.02
2019-03-29T03:39:58.526Z,1.05
2019-03-29T03:42:29.858Z,1.05
2019-03-29T03:45:01.271Z,1.07
2019-03-29T03:47:32.582Z,1.06
2019-03-29T03:50:03.826Z,1.12
2019-03-29T03:52:35.106Z,1.16
2019-03-29T03:55:07.200Z,1.24
2019-03-29T03:57:38.934Z,1.22
2019-03-29T04:00:11.285Z,1.31
2019-03-29T04:02:43.657Z,1.38
2019-03-29T04:05:15.139Z,1.76
2019-03-29T04:07:46.641Z,2.36
2019-03-29T04:10:18.284Z,2.60
2019-03-29T04:12:52.165Z,2.91
2019-03-29T04:15:23.439Z,3.28
2019-03-29T04:17:55.750Z,3.76
2019-03-29T04:20:27.079Z,4.30
2019-03-29T04:22:58.460Z,4.97
2019-03-29T04:25:30.950Z,5.76
2019-03-29T04:28:02.667Z,5.69
2019-03-29T04:30:35.034Z,5.50
2019-03-29T04:33:10.861Z,6.11
2019-03-29T04:35:39.530Z,6.06
2019-03-29T04:38:10.812Z,6.13
2019-03-29T04:40:42.145Z,6.43
2019-03-29T04:43:13.445Z,6.45
2019-03-29T04:45:44.758Z,6.40
2019-03-29T04:48:16.076Z,6.65
2019-03-29T04:50:48.424Z,6.73
2019-03-29T04:53:20.153Z,6.82
2019-03-29T04:55:51.491Z,6.58
2019-03-29T04:58:22.761Z,6.61
2019-03-29T05:00:54.133Z,6.84
2019-03-29T05:03:25.439Z,6.91
2019-03-29T05:05:56.907Z,6.49
2019-03-29T05:08:28.232Z,6.12
2019-03-29T05:10:59.531Z,5.62
2019-03-29T05:13:30.747Z,5.87
2019-03-29T05:16:02.063Z,6.12
2019-03-29T05:18:33.406Z,6.70
2019-03-29T05:21:04.638Z,7.67
2019-03-29T05:23:35.968Z,8.69
2019-03-29T05:26:07.290Z,8.95
2019-03-29T05:28:41.380Z,8.75
2019-03-29T05:31:12.676Z,8.97
2019-03-29T05:33:43.915Z,9.80
2019-03-29T05:36:15.304Z,10.78
2019-03-29T05:38:47.055Z,10.53
2019-03-29T05:41:18.273Z,10.23
2019-03-29T05:43:49.603Z,9.56
2019-03-29T05:46:20.970Z,9.61
2019-03-29T05:48:52.204Z,9.11
2019-03-29T05:51:23.512Z,8.70
2019-03-29T05:53:54.926Z,8.39
2019-03-29T05:56:26.170Z,8.11
2019-03-29T05:58:57.481Z,7.63
2019-03-29T06:01:28.837Z,7.02
2019-03-29T06:04:01.218Z,7.04
2019-03-29T06:06:32.553Z,7.10
2019-03-29T06:09:05.530Z,7.06
2019-03-29T06:11:36.885Z,7.05
2019-03-29T06:14:08.200Z,7.20
2019-03-29T06:16:39.617Z,7.25
2019-03-29T06:19:10.897Z,7.11
2019-03-29T06:21:43.864Z,7.41
2019-03-29T06:24:15.282Z,8.57
2019-03-29T06:26:46.636Z,9.34
2019-03-29T06:29:17.987Z,9.47
2019-03-29T06:31:49.371Z,10.71
2019-03-29T06:34:21.276Z,9.68
2019-03-29T06:36:52.609Z,9.37
2019-03-29T06:39:29.940Z,8.71
2019-03-29T06:42:01.266Z,9.34
2019-03-29T06:44:32.610Z,9.94
2019-03-29T06:47:05.012Z,10.08
2019-03-29T06:49:36.304Z,10.34
2019-03-29T06:52:08.873Z,10.86
2019-03-29T06:54:45.526Z,10.89
2019-03-29T06:57:17.001Z,11.38
2019-03-29T06:59:50.432Z,12.02
2019-03-29T07:02:21.904Z,12.21
2019-03-29T07:04:57.198Z,11.78
2019-03-29T07:07:34.900Z,11.54
2019-03-29T07:10:06.984Z,12.19
2019-03-29T07:12:39.385Z,12.09
2019-03-29T07:15:10.852Z,13.17
2019-03-29T07:17:42.231Z,13.38
2019-03-29T07:20:13.657Z,13.46
2019-03-29T07:22:45.041Z,14.53
2019-03-29T07:25:16.483Z,14.79
2019-03-29T07:27:52.357Z,14.54
2019-03-29T07:30:23.764Z,15.64
2019-03-29T07:32:55.201Z,14.91
2019-03-29T07:35:28.162Z,16.63
2019-03-29T07:37:59.406Z,15.24
2019-03-29T07:40:30.840Z,15.46
2019-03-29T07:43:03.223Z,15.74
2019-03-29T07:45:42.612Z,15.10
2019-03-29T07:48:15.734Z,15.56
2019-03-29T07:50:47.114Z,15.87
2019-03-29T07:53:22.103Z,15.28
2019-03-29T07:55:55.029Z,16.09
2019-03-29T07:58:26.442Z,13.88
2019-03-29T08:01:01.611Z,12.49
2019-03-29T08:03:34.010Z,11.59
2019-03-29T08:06:06.492Z,10.94
2019-03-29T08:08:37.963Z,10.64
2019-03-29T08:11:09.661Z,10.50
2019-03-29T08:13:41.053Z,10.05
2019-03-29T08:16:12.369Z,9.78
2019-03-29T08:18:44.780Z,9.74
2019-03-29T08:21:16.313Z,9.37
2019-03-29T08:23:49.670Z,9.24
2019-03-29T08:26:22.413Z,9.26
2019-03-29T08:29:06.803Z,9.20
2019-03-29T08:31:36.394Z,8.97
2019-03-29T08:34:11.145Z,9.59
2019-03-29T08:36:42.646Z,9.29
2019-03-29T08:39:27.365Z,9.08
2019-03-29T08:41:59.588Z,9.11
2019-03-29T08:44:27.349Z,8.94
2019-03-29T08:47:00.836Z,8.91
2019-03-29T08:49:41.946Z,8.80
2019-03-29T08:52:13.232Z,8.80
2019-03-29T08:54:45.628Z,9.06
2019-03-29T08:57:18.162Z,9.35
2019-03-29T08:59:51.476Z,9.53
2019-03-29T09:02:25.216Z,9.21
2019-03-29T09:04:56.442Z,9.11
2019-03-29T09:07:28.178Z,8.95
2019-03-29T09:10:00.561Z,9.37
2019-03-29T09:12:33.502Z,9.22
2019-03-29T09:15:05.056Z,9.49
2019-03-29T09:17:37.362Z,9.87
2019-03-29T09:20:10.704Z,9.53
2019-03-29T09:22:44.220Z,9.61
2019-03-29T09:25:15.659Z,9.56
2019-03-29T09:27:48.320Z,9.62
2019-03-29T09:30:19.695Z,9.86
2019-03-29T09:32:51.793Z,9.37
2019-03-29T09:35:23.139Z,9.20
2019-03-29T09:37:56.527Z,9.46
2019-03-29T09:40:27.918Z,9.43
2019-03-29T09:43:07.402Z,9.34
2019-03-29T09:45:32.596Z,9.23
2019-03-29T09:48:06.045Z,9.04
2019-03-29T09:53:28.351Z,9.22
2019-03-29T09:55:59.905Z,9.27
2019-03-29T09:58:31.236Z,9.55
2019-03-29T10:01:02.518Z,9.55
2019-03-29T10:03:33.760Z,9.20
2019-03-29T10:06:05.037Z,9.32
2019-03-29T10:08:36.458Z,9.19
2019-03-29T10:11:07.801Z,8.96
2019-03-29T10:13:41.128Z,8.81
2019-03-29T10:16:13.792Z,8.64
2019-03-29T10:18:45.478Z,8.64
2019-03-29T10:21:17.699Z,8.62
2019-03-29T10:23:51.345Z,8.70
2019-03-29T10:26:22.815Z,8.61
2019-03-29T10:29:00.430Z,8.74
2019-03-29T10:31:34.862Z,8.64
2019-03-29T10:34:11.070Z,8.56
2019-03-29T10:36:43.018Z,8.85
2019-03-29T10:39:17.993Z,8.74
2019-03-29T10:41:54.175Z,8.74
2019-03-29T10:44:28.368Z,8.96
2019-03-29T10:47:00.019Z,8.98
2019-03-29T10:49:32.496Z,8.89
2019-03-29T10:52:03.846Z,8.96
2019-03-29T10:54:36.348Z,8.95
2019-03-29T10:57:09.632Z,9.01
2019-03-29T10:59:42.914Z,9.07
2019-03-29T11:02:14.308Z,9.20
2019-03-29T11:04:45.623Z,9.19
2019-03-29T11:07:16.994Z,9.02
2019-03-29T11:09:49.414Z,8.93
2019-03-29T11:12:20.831Z,8.98
2019-03-29T11:14:52.151Z,8.92
2019-03-29T11:17:23.498Z,8.70
2019-03-29T11:19:55.069Z,8.68
2019-03-29T11:22:30.556Z,8.84
2019-03-29T11:25:03.354Z,9.34
2019-03-29T11:27:35.033Z,9.85
2019-03-29T11:30:12.512Z,9.60
2019-03-29T11:32:44.159Z,9.45
2019-03-29T11:35:15.936Z,9.49
2019-03-29T11:37:47.644Z,9.26
2019-03-29T11:40:19.352Z,9.51
2019-03-29T11:42:50.907Z,9.30
2019-03-29T11:45:25.574Z,8.98
2019-03-29T11:48:08.543Z,8.95
2019-03-29T11:50:34.340Z,9.74
2019-03-29T11:53:06.887Z,9.74
2019-03-29T11:55:39.434Z,9.60
2019-03-29T11:58:10.979Z,9.21
2019-03-29T12:00:42.325Z,8.99
2019-03-29T12:03:15.534Z,9.15
2019-03-29T12:05:48.456Z,9.19
2019-03-29T12:08:19.813Z,9.32
2019-03-29T12:10:51.433Z,9.54
2019-03-29T12:13:22.762Z,10.78
2019-03-29T12:15:55.887Z,10.34
2019-03-29T12:18:27.338Z,9.83
2019-03-29T12:20:58.927Z,9.84
2019-03-29T12:23:30.327Z,9.91
2019-03-29T12:26:05.022Z,9.72
2019-03-29T12:28:37.410Z,10.14
2019-03-29T12:31:20.895Z,10.36
2019-03-29T12:33:52.652Z,9.77
2019-03-29T12:36:23.903Z,9.64
2019-03-29T12:38:55.320Z,9.48
2019-03-29T12:41:28.050Z,10.05
2019-03-29T12:43:59.870Z,10.20
2019-03-29T12:46:33.261Z,10.06
2019-03-29T12:49:06.681Z,9.78
2019-03-29T12:51:40.297Z,9.93
2019-03-29T12:54:12.895Z,9.84
2019-03-29T12:56:46.961Z,9.73
2019-03-29T12:59:18.316Z,9.82
2019-03-29T13:01:49.678Z,10.36
2019-03-29T13:04:21.100Z,10.29
2019-03-29T13:06:52.644Z,10.62
2019-03-29T13:09:30.060Z,10.36
2019-03-29T13:12:01.554Z,10.63
2019-03-29T13:14:35.749Z,10.03
2019-03-29T13:17:10.704Z,10.02
2019-03-29T13:19:46.762Z,9.58
2019-03-29T13:22:18.014Z,9.81
2019-03-29T13:24:49.328Z,9.77
2019-03-29T13:27:20.771Z,9.78
2019-03-29T13:29:55.487Z,9.87
2019-03-29T13:32:28.016Z,9.89
2019-03-29T13:35:00.926Z,9.60
2019-03-29T13:37:33.500Z,9.56
2019-03-29T13:40:08.169Z,9.27
2019-03-29T13:42:40.518Z,9.42
2019-03-29T13:45:11.853Z,9.77
2019-03-29T13:47:45.405Z,9.51
2019-03-29T13:50:18.253Z,9.44
2019-03-29T13:52:50.646Z,9.74
2019-03-29T13:55:21.966Z,9.65
2019-03-29T14:00:47.030Z,9.88
2019-03-29T14:03:18.863Z,10.00
2019-03-29T14:05:50.328Z,10.39
2019-03-29T14:08:24.567Z,9.98
2019-03-29T14:10:58.165Z,10.56
2019-03-29T14:13:30.211Z,9.77
2019-03-29T14:16:03.961Z,10.16
2019-03-29T14:18:36.687Z,9.74
2019-03-29T14:21:10.393Z,9.87
2019-03-29T14:23:42.135Z,9.65
2019-03-29T14:26:16.365Z,9.66
2019-03-29T14:28:47.838Z,9.81
2019-03-29T14:31:19.148Z,9.94
2019-03-29T14:33:50.411Z,9.96
2019-03-29T14:36:22.980Z,9.94
2019-03-29T14:38:54.367Z,9.78
2019-03-29T14:44:05.828Z,9.65
2019-03-29T14:46:39.914Z,9.88
2019-03-29T14:49:11.480Z,10.17
2019-03-29T14:51:43.035Z,9.83
2019-03-29T14:54:14.692Z,9.89
2019-03-29T14:56:47.384Z,9.77
2019-03-29T14:59:24.803Z,9.87
2019-03-29T15:01:56.194Z,10.03
2019-03-29T15:04:30.467Z,10.15
2019-03-29T15:07:03.719Z,9.86
2019-03-29T15:09:35.451Z,9.91
2019-03-29T15:12:08.502Z,9.66
2019-03-29T15:14:39.748Z,9.94
2019-03-29T15:17:11.090Z,9.75
2019-03-29T15:19:43.807Z,9.72
2019-03-29T15:22:19.145Z,9.49
2019-03-29T15:24:55.280Z,9.61
2019-03-29T15:27:26.756Z,9.36
2019-03-29T15:29:59.030Z,9.25
2019-03-29T15:32:45.694Z,9.07
2019-03-29T15:35:21.053Z,9.29
2019-03-29T15:37:55.263Z,9.29
2019-03-29T15:40:26.595Z,9.14
2019-03-29T15:42:57.935Z,9.34
2019-03-29T15:45:31.311Z,9.39
2019-03-29T15:48:02.679Z,9.13
2019-03-29T15:50:34.079Z,8.80
2019-03-29T15:53:05.648Z,8.80
2019-03-29T15:55:36.976Z,8.64
2019-03-29T15:58:16.106Z,8.74
2019-03-29T16:00:47.537Z,8.63
2019-03-29T16:03:19.236Z,8.62
2019-03-29T16:05:50.902Z,8.68
2019-03-29T16:08:22.446Z,8.45
2019-03-29T16:10:53.821Z,8.43
2019-03-29T16:13:26.101Z,8.54
2019-03-29T16:15:57.594Z,8.47
2019-03-29T16:18:34.467Z,8.47
2019-03-29T16:21:06.936Z,8.36
2019-03-29T16:23:38.618Z,8.35
2019-03-29T16:26:12.125Z,8.17
2019-03-29T16:28:43.657Z,8.31
2019-03-29T16:31:15.606Z,8.28
2019-03-29T16:33:57.498Z,8.54
2019-03-29T16:36:29.004Z,8.38
2019-03-29T16:39:00.373Z,8.04
2019-03-29T16:41:31.798Z,8.35
2019-03-29T16:44:05.763Z,8.21
2019-03-29T16:46:37.156Z,8.28
2019-03-29T16:49:10.118Z,8.29
2019-03-29T16:51:41.966Z,8.32
2019-03-29T16:54:18.491Z,8.13
2019-03-29T16:56:50.947Z,8.29
2019-03-29T16:59:22.546Z,8.18
2019-03-29T17:01:55.077Z,8.21
2019-03-29T17:04:26.579Z,8.62
2019-03-29T17:07:02.715Z,8.44
2019-03-29T17:12:40.735Z,8.97
2019-03-29T17:15:14.023Z,9.16
2019-03-29T17:17:50.717Z,9.19
2019-03-29T17:20:22.137Z,8.77
2019-03-29T17:22:55.792Z,8.93
2019-03-29T17:25:28.756Z,8.86
2019-03-29T17:28:02.446Z,9.59
2019-03-29T17:30:39.723Z,9.38
2019-03-29T17:33:11.117Z,9.65
2019-03-29T17:35:43.679Z,9.46
2019-03-29T17:38:15.128Z,9.51
2019-03-29T17:40:46.671Z,9.51
2019-03-29T17:43:18.644Z,9.54
2019-03-29T17:45:51.908Z,9.41
2019-03-29T17:48:24.349Z,8.78
2019-03-29T17:50:55.673Z,9.02
2019-03-29T17:53:27.049Z,9.61
2019-03-29T17:55:58.352Z,9.38
2019-03-29T17:58:29.587Z,9.06
2019-03-29T18:01:03.576Z,9.16
2019-03-29T18:03:35.326Z,9.35
2019-03-29T18:06:07.730Z,9.25
2019-03-29T18:08:38.991Z,9.25
2019-03-29T18:11:10.486Z,8.74
2019-03-29T18:13:42.022Z,8.74
2019-03-29T18:16:13.391Z,8.72
2019-03-29T18:18:44.720Z,8.84
2019-03-29T18:21:16.033Z,8.70
2019-03-29T18:23:47.323Z,8.70
2019-03-29T18:26:18.983Z,8.71
2019-03-29T18:28:50.303Z,8.68
2019-03-29T18:31:23.800Z,8.55
2019-03-29T18:34:02.953Z,8.60
2019-03-29T18:36:37.348Z,8.60
2019-03-29T18:39:08.738Z,8.55
2019-03-29T18:41:42.444Z,8.88
2019-03-29T18:44:13.812Z,8.88
2019-03-29T18:46:45.381Z,8.81
2019-03-29T18:49:18.597Z,8.80
2019-03-29T18:51:51.096Z,8.52
2019-03-29T18:54:22.417Z,8.52
2019-03-29T18:56:54.836Z,8.62
2019-03-29T18:59:26.279Z,8.57
2019-03-29T19:01:58.837Z,8.46
2019-03-29T19:04:30.235Z,8.52
2019-03-29T19:07:01.769Z,8.52
2019-03-29T19:09:34.182Z,8.58
2019-03-29T19:12:05.553Z,8.86
2019-03-29T19:14:36.895Z,8.87
2019-03-29T19:17:08.186Z,8.66
2019-03-29T19:19:39.535Z,8.77
2019-03-29T19:22:11.135Z,9.78
2019-03-29T19:24:44.547Z,9.51
2019-03-29T19:27:18.927Z,9.11
2019-03-29T19:29:50.302Z,8.93
2019-03-29T19:32:21.688Z,8.73
2019-03-29T19:34:53.037Z,9.27
2019-03-29T19:37:24.332Z,9.16
2019-03-29T19:39:55.671Z,8.96
2019-03-29T19:42:26.969Z,9.00
2019-03-29T19:44:58.288Z,9.31
2019-03-29T19:47:29.698Z,9.17
2019-03-29T19:50:05.066Z,9.21
2019-03-29T19:52:37.625Z,9.06
2019-03-29T19:55:09.306Z,8.50
2019-03-29T19:57:40.635Z,8.15
2019-03-29T20:00:13.037Z,8.01
2019-03-29T20:02:44.654Z,7.93
2019-03-29T20:05:26.814Z,7.85
2019-03-29T20:08:03.199Z,7.67
2019-03-29T20:10:34.571Z,7.67
2019-03-29T20:13:07.036Z,7.66
2019-03-29T20:15:38.365Z,7.70
2019-03-29T20:18:09.700Z,7.69
2019-03-29T20:20:41.033Z,7.69
2019-03-29T20:23:13.456Z,7.72
2019-03-29T20:25:44.768Z,7.71
2019-03-29T20:28:17.072Z,7.73
2019-03-29T20:30:48.400Z,7.68
2019-03-29T20:33:19.695Z,7.62
2019-03-29T20:35:51.954Z,7.75
2019-03-29T20:38:25.322Z,7.71
2019-03-29T20:40:57.705Z,7.68
2019-03-29T20:43:29.563Z,7.74
2019-03-29T20:46:02.395Z,7.72
2019-03-29T20:48:33.791Z,7.67
2019-03-29T20:51:05.221Z,7.66
2019-03-29T20:53:36.593Z,7.71
2019-03-29T20:56:07.905Z,7.69
2019-03-29T20:58:40.211Z,7.69
2019-03-29T21:01:11.368Z,7.63
2019-03-29T21:03:43.762Z,7.42
2019-03-29T21:06:15.407Z,7.28
2019-03-29T21:08:47.620Z,7.28
2019-03-29T21:11:18.992Z,7.20
2019-03-29T21:13:51.453Z,7.14
2019-03-29T21:16:23.738Z,7.05
2019-03-29T21:18:55.012Z,7.03
2019-03-29T21:21:26.225Z,6.98
2019-03-29T21:23:57.509Z,6.92
2019-03-29T21:26:28.827Z,6.91
2019-03-29T21:29:00.057Z,6.84
2019-03-29T21:31:31.388Z,6.85
2019-03-29T21:34:03.838Z,6.85
2019-03-29T21:36:35.156Z,6.86
2019-03-29T21:39:09.149Z,6.83
2019-03-29T21:41:40.486Z,6.74
2019-03-29T21:44:11.842Z,6.71
2019-03-29T21:46:43.169Z,6.70
2019-03-29T21:49:18.118Z,6.70
2019-03-29T21:51:50.439Z,6.62
2019-03-29T21:54:22.795Z,6.68
2019-03-29T21:56:54.106Z,6.74
2019-03-29T21:59:26.519Z,6.70
2019-03-29T22:01:57.798Z,6.76
2019-03-29T22:04:29.161Z,6.68
2019-03-29T22:07:00.464Z,6.66
2019-03-29T22:09:37.214Z,6.67
2019-03-29T22:12:04.821Z,6.61
2019-03-29T22:14:36.076Z,6.62
2019-03-29T22:17:08.433Z,6.63
2019-03-29T22:19:39.715Z,6.57
2019-03-29T22:22:10.992Z,6.55
2019-03-29T22:24:42.370Z,6.53
2019-03-29T22:27:13.699Z,6.45
2019-03-29T22:29:46.521Z,6.34
2019-03-29T22:32:17.741Z,6.34
2019-03-29T22:34:48.972Z,6.33
2019-03-29T22:37:20.505Z,6.31
2019-03-29T22:39:51.811Z,6.28
2019-03-29T22:42:23.137Z,6.33
2019-03-29T22:44:55.479Z,6.34
2019-03-29T22:47:26.739Z,6.36
2019-03-29T22:49:58.053Z,6.33
2019-03-29T22:52:29.564Z,6.34
2019-03-29T22:55:02.886Z,6.31
2019-03-29T22:57:36.282Z,6.25
2019-03-29T23:00:19.593Z,6.19
2019-03-29T23:02:52.191Z,6.15
2019-03-29T23:05:23.405Z,6.15
2019-03-29T23:07:54.680Z,6.09
2019-03-29T23:10:26.117Z,6.09
2019-03-29T23:12:57.415Z,6.13
2019-03-29T23:15:28.715Z,6.23
2019-03-29T23:18:00.037Z,6.20
2019-03-29T23:20:31.357Z,6.29
2019-03-29T23:23:03.722Z,6.34
2019-03-29T23:25:35.072Z,6.43
2019-03-29T23:28:06.455Z,6.41
2019-03-29T23:30:37.916Z,6.30
2019-03-29T23:33:10.422Z,6.27
2019-03-29T23:35:41.787Z,6.28
2019-03-29T23:38:13.106Z,6.25
2019-03-29T23:40:44.407Z,6.17
2019-03-29T23:43:15.737Z,6.14
2019-03-29T23:45:47.192Z,6.13
2019-03-29T23:48:21.251Z,6.10
2019-03-29T23:50:53.964Z,6.07
2019-03-29T23:53:25.254Z,6.10
2019-03-29T23:55:56.586Z,6.02
2019-03-29T23:58:28.053Z,5.98
